createdAt,value
2019-05-26T00:00:43.796Z,12.13
2019-05-26T00:01:43.784Z,12.16
2019-05-26T00:02:43.773Z,12.20
2019-05-26T00:03:43.794Z,12.19
2019-05-26T00:04:43.758Z,12.20
2019-05-26T00:05:43.741Z,12.20
2019-05-26T00:06:43.730Z,12.27
2019-05-26T00:07:43.717Z,12.24
2019-05-26T00:08:43.725Z,12.23
2019-05-26T00:09:43.692Z,12.23
2019-05-26T00:10:43.716Z,12.19
2019-05-26T00:11:43.674Z,12.19
2019-05-26T00:12:43.663Z,12.28
2019-05-26T00:13:43.836Z,12.17
2019-05-26T00:14:43.649Z,12.21
2019-05-26T00:15:43.637Z,12.14
2019-05-26T00:16:43.618Z,12.13
2019-05-26T00:17:43.607Z,12.19
2019-05-26T00:18:43.623Z,12.16
2019-05-26T00:19:43.587Z,12.05
2019-05-26T00:20:43.573Z,12.12
2019-05-26T00:21:43.565Z,12.07
2019-05-26T00:22:43.587Z,12.07
2019-05-26T00:23:43.559Z,11.98
2019-05-26T00:24:43.528Z,11.98
2019-05-26T00:25:43.520Z,11.95
2019-05-26T00:26:43.504Z,11.95
2019-05-26T00:27:43.500Z,11.95
2019-05-26T00:28:43.515Z,11.96
2019-05-26T00:29:43.473Z,11.99
2019-05-26T00:30:43.459Z,11.95
2019-05-26T00:31:43.454Z,11.86
2019-05-26T00:32:43.443Z,11.88
2019-05-26T00:33:43.446Z,11.94
2019-05-26T00:34:43.438Z,11.95
2019-05-26T00:35:43.408Z,11.85
2019-05-26T00:36:43.399Z,11.90
2019-05-26T00:37:49.651Z,11.90
2019-05-26T00:38:44.397Z,11.83
2019-05-26T00:39:43.369Z,11.94
2019-05-26T00:40:43.346Z,11.86
2019-05-26T00:41:43.340Z,11.86
2019-05-26T00:42:43.348Z,11.94
2019-05-26T00:43:43.320Z,11.85
2019-05-26T00:44:43.326Z,11.99
2019-05-26T00:45:43.296Z,11.91
2019-05-26T00:46:43.286Z,11.94
2019-05-26T00:47:43.270Z,11.94
2019-05-26T00:48:43.449Z,11.94
2019-05-26T00:49:43.278Z,11.94
2019-05-26T00:50:43.241Z,11.86
2019-05-26T00:51:43.224Z,11.83
2019-05-26T00:52:43.230Z,11.86
2019-05-26T00:53:43.215Z,11.85
2019-05-26T00:54:43.197Z,11.85
2019-05-26T00:55:43.203Z,11.78
2019-05-26T00:56:43.173Z,11.83
2019-05-26T00:57:43.164Z,11.80
2019-05-26T00:58:43.147Z,11.83
2019-05-26T00:59:43.138Z,11.75
2019-05-26T01:00:43.156Z,11.73
2019-05-26T01:01:43.119Z,11.76
2019-05-26T01:02:43.112Z,11.70
2019-05-26T01:03:43.094Z,11.70
2019-05-26T01:04:43.080Z,11.69
2019-05-26T01:05:43.097Z,11.72
2019-05-26T01:06:43.069Z,11.67
2019-05-26T01:07:43.152Z,11.72
2019-05-26T01:08:43.047Z,11.58
2019-05-26T01:09:43.034Z,11.62
2019-05-26T01:10:43.015Z,11.64
2019-05-26T01:11:43.032Z,11.61
2019-05-26T01:12:42.994Z,11.69
2019-05-26T01:13:42.989Z,11.58
2019-05-26T01:14:42.972Z,11.64
2019-05-26T01:15:42.962Z,11.54
2019-05-26T01:16:43.014Z,11.57
2019-05-26T01:17:42.975Z,11.57
2019-05-26T01:18:42.928Z,11.57
2019-05-26T01:19:42.997Z,11.52
2019-05-26T01:20:42.907Z,11.54
2019-05-26T01:21:42.896Z,11.51
2019-05-26T01:22:43.006Z,11.54
2019-05-26T01:23:42.881Z,11.55
2019-05-26T01:24:42.863Z,11.52
2019-05-26T01:25:42.859Z,11.54
2019-05-26T01:26:42.836Z,11.54
2019-05-26T01:27:42.846Z,11.54
2019-05-26T01:28:42.821Z,11.57
2019-05-26T01:29:42.874Z,11.44
2019-05-26T01:30:42.794Z,11.46
2019-05-26T01:31:42.801Z,11.51
2019-05-26T01:32:42.788Z,11.49
2019-05-26T01:33:42.760Z,11.43
2019-05-26T01:34:42.899Z,11.52
2019-05-26T01:35:42.734Z,11.49
2019-05-26T01:36:42.731Z,11.47
2019-05-26T01:37:42.745Z,11.43
2019-05-26T01:38:42.850Z,11.36
2019-05-26T01:39:42.690Z,11.42
2019-05-26T01:40:42.709Z,11.37
2019-05-26T01:41:42.670Z,11.44
2019-05-26T01:42:42.664Z,11.43
2019-05-26T01:43:42.678Z,11.44
2019-05-26T01:44:42.637Z,11.37
2019-05-26T01:45:42.629Z,11.43
2019-05-26T01:46:42.628Z,11.42
2019-05-26T01:47:42.608Z,11.33
2019-05-26T01:48:42.621Z,11.32
2019-05-26T01:49:42.585Z,11.33
2019-05-26T01:50:42.571Z,11.35
2019-05-26T01:51:42.559Z,11.27
2019-05-26T01:52:42.548Z,11.28
2019-05-26T01:53:42.554Z,11.28
2019-05-26T01:54:42.520Z,11.22
2019-05-26T01:55:42.513Z,11.22
2019-05-26T01:56:42.503Z,11.09
2019-05-26T01:57:42.502Z,11.28
2019-05-26T01:58:42.502Z,11.21
2019-05-26T01:59:42.475Z,11.09
2019-05-26T02:00:42.481Z,11.15
2019-05-26T02:01:42.450Z,11.21
2019-05-26T02:02:42.440Z,11.09
2019-05-26T02:03:42.445Z,11.18
2019-05-26T02:04:42.415Z,11.18
2019-05-26T02:05:42.494Z,11.14
2019-05-26T02:06:42.390Z,11.11
2019-05-26T02:07:42.403Z,11.09
2019-05-26T02:08:42.390Z,11.07
2019-05-26T02:09:42.361Z,11.09
2019-05-26T02:10:42.365Z,11.04
2019-05-26T02:11:42.349Z,11.03
2019-05-26T02:12:42.336Z,11.04
2019-05-26T02:13:42.333Z,11.09
2019-05-26T02:14:42.303Z,11.09
2019-05-26T02:15:42.290Z,11.06
2019-05-26T02:16:42.284Z,11.11
2019-05-26T02:17:42.297Z,11.03
2019-05-26T02:18:42.275Z,11.06
2019-05-26T02:19:42.252Z,11.09
2019-05-26T02:20:42.238Z,11.09
2019-05-26T02:21:42.227Z,10.91
2019-05-26T02:22:42.225Z,11.06
2019-05-26T02:23:42.234Z,10.91
2019-05-26T02:24:42.190Z,10.96
2019-05-26T02:25:42.179Z,11.04
2019-05-26T02:26:42.171Z,10.96
2019-05-26T02:27:42.161Z,10.94
2019-05-26T02:28:42.168Z,11.03
2019-05-26T02:29:42.137Z,11.04
2019-05-26T02:30:42.127Z,11.03
2019-05-26T02:31:42.149Z,10.92
2019-05-26T02:32:42.128Z,10.96
2019-05-26T02:33:42.095Z,10.92
2019-05-26T02:34:42.109Z,10.97
2019-05-26T02:35:42.068Z,10.99
2019-05-26T02:36:42.097Z,10.99
2019-05-26T02:37:42.059Z,10.96
2019-05-26T02:38:59.825Z,10.97
2019-05-26T02:39:43.040Z,10.96
2019-05-26T02:40:42.028Z,10.97
2019-05-26T02:41:42.017Z,10.96
2019-05-26T02:42:42.002Z,10.92
2019-05-26T02:43:41.982Z,10.76
2019-05-26T02:44:41.989Z,10.78
2019-05-26T02:45:41.963Z,10.78
2019-05-26T02:46:42.083Z,10.76
2019-05-26T02:47:41.950Z,10.76
2019-05-26T02:48:41.928Z,10.79
2019-05-26T02:49:41.924Z,10.71
2019-05-26T02:50:41.927Z,10.81
2019-05-26T02:51:41.893Z,10.79
2019-05-26T02:52:41.894Z,10.84
2019-05-26T02:53:41.869Z,10.79
2019-05-26T02:54:41.869Z,10.76
2019-05-26T02:55:41.864Z,10.78
2019-05-26T02:56:41.837Z,10.73
2019-05-26T02:57:41.832Z,10.76
2019-05-26T02:58:41.810Z,10.76
2019-05-26T02:59:41.813Z,10.76
2019-05-26T03:00:41.810Z,10.74
2019-05-26T03:02:00.905Z,10.73
2019-05-26T03:02:42.779Z,10.78
2019-05-26T03:03:41.767Z,10.67
2019-05-26T03:04:41.745Z,10.76
2019-05-26T03:05:41.731Z,10.73
2019-05-26T03:06:41.741Z,10.71
2019-05-26T03:07:41.715Z,10.71
2019-05-26T03:08:41.703Z,10.76
2019-05-26T03:09:41.689Z,10.74
2019-05-26T03:10:41.808Z,10.71
2019-05-26T03:11:41.682Z,10.61
2019-05-26T03:12:41.666Z,10.45
2019-05-26T03:13:41.643Z,10.47
2019-05-26T03:14:41.641Z,10.27
2019-05-26T03:15:41.619Z,10.33
2019-05-26T03:16:41.653Z,10.20
2019-05-26T03:17:41.603Z,10.20
2019-05-26T03:18:41.595Z,10.20
2019-05-26T03:19:41.584Z,10.29
2019-05-26T03:20:41.577Z,10.33
2019-05-26T03:21:41.587Z,10.33
2019-05-26T03:22:41.556Z,10.30
2019-05-26T03:23:41.536Z,10.36
2019-05-26T03:24:41.519Z,10.26
2019-05-26T03:25:41.520Z,10.33
2019-05-26T03:26:41.533Z,10.38
2019-05-26T03:27:41.542Z,10.26
2019-05-26T03:28:41.494Z,10.26
2019-05-26T03:29:41.467Z,10.29
2019-05-26T03:30:41.465Z,10.30
2019-05-26T03:31:41.465Z,10.33
2019-05-26T03:32:41.437Z,10.30
2019-05-26T03:33:41.420Z,10.30
2019-05-26T03:34:41.411Z,10.38
2019-05-26T03:35:41.404Z,10.38
2019-05-26T03:36:41.418Z,10.41
2019-05-26T03:37:41.405Z,10.45
2019-05-26T03:38:41.391Z,10.48
2019-05-26T03:39:45.020Z,10.53
2019-05-26T03:40:41.347Z,10.53
2019-05-26T03:41:41.353Z,10.52
2019-05-26T03:42:41.325Z,10.53
2019-05-26T03:43:41.320Z,10.59
2019-05-26T03:44:41.301Z,10.64
2019-05-26T03:45:41.293Z,10.59
2019-05-26T03:46:41.302Z,10.74
2019-05-26T03:47:41.265Z,10.76
2019-05-26T03:48:41.254Z,10.73
2019-05-26T03:49:41.248Z,10.73
2019-05-26T03:50:41.232Z,10.74
2019-05-26T03:51:41.244Z,10.82
2019-05-26T03:52:41.208Z,10.74
2019-05-26T03:53:41.199Z,10.67
2019-05-26T03:54:41.191Z,10.79
2019-05-26T03:55:41.176Z,10.81
2019-05-26T03:56:41.197Z,10.78
2019-05-26T03:57:41.157Z,10.78
2019-05-26T03:58:41.149Z,10.84
2019-05-26T03:59:41.134Z,10.82
2019-05-26T04:00:41.121Z,10.81
2019-05-26T04:01:41.136Z,10.89
2019-05-26T04:02:41.108Z,10.86
2019-05-26T04:03:41.121Z,10.91
2019-05-26T04:04:41.075Z,10.92
2019-05-26T04:05:41.069Z,10.91
2019-05-26T04:06:41.068Z,11.04
2019-05-26T04:07:41.039Z,11.02
2019-05-26T04:08:41.059Z,11.00
2019-05-26T04:09:41.021Z,10.97
2019-05-26T04:10:41.017Z,11.04
2019-05-26T04:11:40.999Z,10.94
2019-05-26T04:12:41.016Z,10.99
2019-05-26T04:13:40.987Z,11.04
2019-05-26T04:14:40.962Z,11.03
2019-05-26T04:15:40.952Z,11.02
2019-05-26T04:16:40.951Z,10.97
2019-05-26T04:17:40.953Z,10.96
2019-05-26T04:18:40.919Z,10.88
2019-05-26T04:19:40.915Z,10.86
2019-05-26T04:20:45.577Z,10.85
2019-05-26T04:21:41.890Z,10.91
2019-05-26T04:22:40.903Z,10.85
2019-05-26T04:23:40.866Z,10.82
2019-05-26T04:24:40.860Z,10.85
2019-05-26T04:25:40.843Z,10.76
2019-05-26T04:26:40.845Z,10.78
2019-05-26T04:27:40.840Z,10.88
2019-05-26T04:28:40.817Z,10.96
2019-05-26T04:29:40.802Z,11.00
2019-05-26T04:30:40.785Z,10.97
2019-05-26T04:31:40.775Z,10.92
2019-05-26T04:32:40.820Z,10.86
2019-05-26T04:33:40.755Z,10.74
2019-05-26T04:34:40.753Z,10.76
2019-05-26T04:35:40.727Z,10.74
2019-05-26T04:36:40.722Z,10.76
2019-05-26T04:37:40.726Z,10.78
2019-05-26T04:38:40.695Z,10.74
2019-05-26T04:39:40.681Z,10.81
2019-05-26T04:40:40.675Z,10.81
2019-05-26T04:41:40.664Z,10.74
2019-05-26T04:42:40.671Z,10.84
2019-05-26T04:43:40.648Z,10.85
2019-05-26T04:44:40.643Z,10.81
2019-05-26T04:45:40.621Z,10.76
2019-05-26T04:46:40.609Z,10.78
2019-05-26T04:47:40.621Z,10.82
2019-05-26T04:48:40.590Z,10.89
2019-05-26T04:49:40.572Z,10.88
2019-05-26T04:50:40.565Z,11.00
2019-05-26T04:51:40.557Z,11.04
2019-05-26T04:52:40.567Z,11.09
2019-05-26T04:53:40.534Z,11.19
2019-05-26T04:54:40.522Z,11.27
2019-05-26T04:55:40.521Z,11.24
2019-05-26T04:56:40.497Z,11.29
2019-05-26T04:57:40.509Z,11.33
2019-05-26T04:58:40.504Z,11.40
2019-05-26T04:59:40.461Z,11.44
2019-05-26T05:00:40.459Z,11.43
2019-05-26T05:01:40.437Z,11.46
2019-05-26T05:02:40.434Z,11.46
2019-05-26T05:03:40.436Z,11.54
2019-05-26T05:04:40.410Z,11.52
2019-05-26T05:05:40.395Z,11.62
2019-05-26T05:06:40.391Z,11.65
2019-05-26T05:07:40.473Z,11.69
2019-05-26T05:08:40.395Z,11.69
2019-05-26T05:09:40.361Z,11.64
2019-05-26T05:10:42.696Z,11.76
2019-05-26T05:11:40.334Z,11.82
2019-05-26T05:12:40.325Z,11.88
2019-05-26T05:13:40.327Z,11.95
2019-05-26T05:14:40.297Z,12.01
2019-05-26T05:15:40.294Z,12.02
2019-05-26T05:16:40.275Z,12.09
2019-05-26T05:17:40.261Z,12.07
2019-05-26T05:18:40.289Z,11.91
2019-05-26T05:19:40.245Z,11.98
2019-05-26T05:20:40.228Z,11.94
2019-05-26T05:21:40.224Z,11.94
2019-05-26T05:22:40.211Z,11.90
2019-05-26T05:23:40.210Z,11.94
2019-05-26T05:24:40.188Z,11.88
2019-05-26T05:25:40.185Z,11.99
2019-05-26T05:26:40.164Z,11.96
2019-05-26T05:27:40.157Z,12.10
2019-05-26T05:28:40.158Z,12.21
2019-05-26T05:29:40.127Z,12.27
2019-05-26T05:30:40.120Z,12.31
2019-05-26T05:31:40.104Z,12.28
2019-05-26T05:32:40.116Z,12.27
2019-05-26T05:33:40.110Z,12.39
2019-05-26T05:34:40.070Z,12.39
2019-05-26T05:35:40.062Z,12.45
2019-05-26T05:36:40.051Z,12.47
2019-05-26T05:37:40.044Z,12.52
2019-05-26T05:38:40.052Z,12.52
2019-05-26T05:39:40.027Z,12.53
2019-05-26T05:40:40.007Z,12.56
2019-05-26T05:41:39.997Z,12.71
2019-05-26T05:42:39.987Z,12.77
2019-05-26T05:43:39.998Z,12.82
2019-05-26T05:44:39.960Z,12.83
2019-05-26T05:45:39.976Z,12.83
2019-05-26T05:46:39.938Z,13.01
2019-05-26T05:47:39.930Z,12.97
2019-05-26T05:48:39.942Z,12.89
2019-05-26T05:49:39.918Z,12.96
2019-05-26T05:50:39.899Z,12.96
2019-05-26T05:51:39.884Z,13.04
2019-05-26T05:52:39.878Z,13.04
2019-05-26T05:53:39.878Z,12.90
2019-05-26T05:54:39.858Z,13.03
2019-05-26T05:55:39.845Z,13.07
2019-05-26T05:56:39.826Z,13.17
2019-05-26T05:57:39.825Z,13.28
2019-05-26T05:58:39.832Z,13.39
2019-05-26T05:59:39.794Z,13.39
2019-05-26T06:00:39.790Z,13.45
2019-05-26T06:01:39.774Z,13.48
2019-05-26T06:02:39.766Z,13.60
2019-05-26T06:03:39.770Z,13.46
2019-05-26T06:04:39.738Z,13.52
2019-05-26T06:05:39.729Z,13.60
2019-05-26T06:06:39.724Z,13.70
2019-05-26T06:07:39.711Z,13.77
2019-05-26T06:08:39.720Z,13.71
2019-05-26T06:09:39.700Z,13.70
2019-05-26T06:10:39.683Z,13.77
2019-05-26T06:11:39.666Z,13.78
2019-05-26T06:12:39.654Z,13.77
2019-05-26T06:13:39.663Z,13.78
2019-05-26T06:14:39.706Z,13.69
2019-05-26T06:15:39.614Z,13.77
2019-05-26T06:16:39.616Z,13.85
2019-05-26T06:17:39.607Z,13.88
2019-05-26T06:18:39.594Z,13.91
2019-05-26T06:19:39.593Z,13.96
2019-05-26T06:20:39.568Z,14.02
2019-05-26T06:21:39.550Z,14.04
2019-05-26T06:22:39.592Z,14.09
2019-05-26T06:23:39.545Z,14.06
2019-05-26T06:24:39.541Z,14.14
2019-05-26T06:25:39.505Z,14.17
2019-05-26T06:26:39.490Z,14.35
2019-05-26T06:27:39.493Z,14.25
2019-05-26T06:28:39.477Z,14.33
2019-05-26T06:29:39.480Z,14.33
2019-05-26T06:30:39.450Z,14.46
2019-05-26T06:31:39.496Z,14.60
2019-05-26T06:32:39.436Z,14.60
2019-05-26T06:33:39.425Z,14.60
2019-05-26T06:34:39.424Z,14.68
2019-05-26T06:35:39.395Z,14.70
2019-05-26T06:36:39.385Z,14.83
2019-05-26T06:37:39.409Z,14.86
2019-05-26T06:38:39.356Z,14.98
2019-05-26T06:39:39.367Z,15.13
2019-05-26T06:40:39.343Z,15.16
2019-05-26T06:41:39.334Z,15.13
2019-05-26T06:42:39.311Z,15.14
2019-05-26T06:43:39.303Z,15.11
2019-05-26T06:44:52.607Z,15.13
2019-05-26T06:45:40.282Z,15.06
2019-05-26T06:46:39.280Z,15.03
2019-05-26T06:47:39.275Z,15.17
2019-05-26T06:48:39.318Z,15.17
2019-05-26T06:49:39.254Z,15.29
2019-05-26T06:50:39.225Z,15.41
2019-05-26T06:51:39.211Z,15.32
2019-05-26T06:52:39.210Z,15.39
2019-05-26T06:53:39.189Z,15.50
2019-05-26T06:54:39.206Z,15.60
2019-05-26T06:55:39.176Z,15.62
2019-05-26T06:56:39.161Z,15.69
2019-05-26T06:57:39.150Z,15.71
2019-05-26T06:58:39.147Z,15.72
2019-05-26T06:59:39.151Z,15.75
2019-05-26T07:00:39.110Z,15.82
2019-05-26T07:01:39.108Z,15.84
2019-05-26T07:02:39.091Z,15.69
2019-05-26T07:03:39.080Z,15.72
2019-05-26T07:04:39.086Z,15.72
2019-05-26T07:05:39.059Z,15.71
2019-05-26T07:06:39.044Z,15.75
2019-05-26T07:07:39.036Z,15.82
2019-05-26T07:08:39.026Z,15.80
2019-05-26T07:09:39.049Z,15.87
2019-05-26T07:10:39.005Z,15.94
2019-05-26T07:11:51.692Z,16.04
2019-05-26T07:12:39.994Z,16.05
2019-05-26T07:13:38.965Z,16.11
2019-05-26T07:14:38.986Z,16.09
2019-05-26T07:15:38.955Z,16.11
2019-05-26T07:16:39.056Z,16.02
2019-05-26T07:17:38.923Z,16.08
2019-05-26T07:18:38.925Z,16.14
2019-05-26T07:19:38.938Z,16.25
2019-05-26T07:20:38.888Z,16.41
2019-05-26T07:21:38.899Z,16.46
2019-05-26T07:22:38.878Z,16.52
2019-05-26T07:23:38.857Z,16.64
2019-05-26T07:24:38.881Z,16.66
2019-05-26T07:25:38.839Z,16.64
2019-05-26T07:26:38.826Z,16.61
2019-05-26T07:27:38.841Z,16.61
2019-05-26T07:28:38.802Z,16.63
2019-05-26T07:29:38.790Z,16.70
2019-05-26T07:30:38.801Z,16.70
2019-05-26T07:31:38.763Z,16.81
2019-05-26T07:32:38.756Z,16.89
2019-05-26T07:33:38.744Z,16.89
2019-05-26T07:34:38.736Z,16.98
2019-05-26T07:35:38.752Z,16.97
2019-05-26T07:36:38.716Z,16.98
2019-05-26T07:37:38.704Z,17.21
2019-05-26T07:38:38.686Z,17.30
2019-05-26T07:39:38.688Z,17.31
2019-05-26T07:40:38.684Z,17.37
2019-05-26T07:41:38.659Z,17.43
2019-05-26T07:42:38.645Z,17.38
2019-05-26T07:43:38.628Z,17.54
2019-05-26T07:44:38.624Z,17.34
2019-05-26T07:45:38.630Z,17.33
2019-05-26T07:46:38.597Z,17.18
2019-05-26T07:47:38.598Z,17.06
2019-05-26T07:48:38.575Z,17.12
2019-05-26T07:49:38.568Z,17.04
2019-05-26T07:50:38.582Z,17.19
2019-05-26T07:51:38.547Z,17.22
2019-05-26T07:52:38.529Z,17.19
2019-05-26T07:53:38.522Z,17.31
2019-05-26T07:54:38.512Z,17.36
2019-05-26T07:55:38.524Z,17.33
2019-05-26T07:56:38.503Z,17.37
2019-05-26T07:57:39.113Z,17.34
2019-05-26T07:58:38.464Z,17.34
2019-05-26T07:59:38.450Z,17.51
2019-05-26T08:00:38.459Z,17.38
2019-05-26T08:01:38.460Z,17.52
2019-05-26T08:02:38.425Z,17.54
2019-05-26T08:03:38.418Z,17.56
2019-05-26T08:04:38.403Z,17.52
2019-05-26T08:05:38.409Z,17.52
2019-05-26T08:06:38.456Z,17.58
2019-05-26T08:07:38.373Z,17.55
2019-05-26T08:08:38.354Z,17.51
2019-05-26T08:09:38.426Z,17.49
2019-05-26T08:10:38.359Z,17.63
2019-05-26T08:11:38.338Z,17.79
2019-05-26T08:12:38.312Z,17.86
2019-05-26T08:13:38.304Z,17.92
2019-05-26T08:14:38.349Z,17.93
2019-05-26T08:15:38.331Z,17.96
2019-05-26T08:16:38.285Z,17.97
2019-05-26T08:17:38.252Z,17.96
2019-05-26T08:18:38.240Z,18.00
2019-05-26T08:19:38.240Z,18.00
2019-05-26T08:20:38.239Z,17.96
2019-05-26T08:21:38.208Z,17.84
2019-05-26T08:22:38.201Z,17.87
2019-05-26T08:23:38.191Z,17.87
2019-05-26T08:24:38.180Z,17.92
2019-05-26T08:25:38.186Z,17.93
2019-05-26T08:26:38.173Z,18.07
2019-05-26T08:27:38.154Z,18.15
2019-05-26T08:28:38.142Z,18.27
2019-05-26T08:29:38.119Z,18.36
2019-05-26T08:30:38.116Z,18.45
2019-05-26T08:31:38.122Z,18.50
2019-05-26T08:32:38.089Z,18.65
2019-05-26T08:33:38.082Z,18.47
2019-05-26T08:34:38.064Z,18.48
2019-05-26T08:35:38.070Z,18.54
2019-05-26T08:36:38.067Z,18.66
2019-05-26T08:37:38.032Z,18.66
2019-05-26T08:38:38.017Z,18.63
2019-05-26T08:39:38.009Z,18.67
2019-05-26T08:40:37.997Z,18.69
2019-05-26T08:41:38.010Z,18.75
2019-05-26T08:42:44.518Z,18.72
2019-05-26T08:43:39.007Z,18.70
2019-05-26T08:44:37.952Z,18.70
2019-05-26T08:45:37.941Z,18.82
2019-05-26T08:46:37.950Z,18.84
2019-05-26T08:47:37.925Z,18.82
2019-05-26T08:48:37.913Z,18.84
2019-05-26T08:49:37.896Z,18.91
2019-05-26T08:50:37.888Z,19.02
2019-05-26T08:51:37.892Z,19.13
2019-05-26T08:52:37.866Z,19.19
2019-05-26T08:53:37.859Z,19.10
2019-05-26T08:54:37.843Z,19.13
2019-05-26T08:55:37.845Z,19.19
2019-05-26T08:56:37.844Z,19.11
2019-05-26T08:57:37.814Z,19.14
2019-05-26T08:58:37.800Z,19.08
2019-05-26T08:59:37.791Z,19.26
2019-05-26T09:00:37.782Z,19.28
2019-05-26T09:01:37.787Z,19.31
2019-05-26T09:02:37.755Z,19.37
2019-05-26T09:03:37.741Z,19.55
2019-05-26T09:04:37.740Z,19.55
2019-05-26T09:05:37.729Z,19.66
2019-05-26T09:06:37.727Z,19.76
2019-05-26T09:07:37.705Z,19.58
2019-05-26T09:08:37.695Z,19.59
2019-05-26T09:09:37.685Z,19.56
2019-05-26T09:10:37.680Z,19.76
2019-05-26T09:11:37.681Z,19.83
2019-05-26T09:12:37.653Z,19.73
2019-05-26T09:13:37.632Z,19.62
2019-05-26T09:14:37.630Z,19.51
2019-05-26T09:15:37.615Z,19.50
2019-05-26T09:16:37.622Z,19.44
2019-05-26T09:17:37.591Z,19.54
2019-05-26T09:18:37.582Z,19.40
2019-05-26T09:19:37.568Z,19.50
2019-05-26T09:20:37.565Z,19.61
2019-05-26T09:21:37.572Z,19.62
2019-05-26T09:22:37.542Z,19.62
2019-05-26T09:23:37.517Z,19.58
2019-05-26T09:24:37.511Z,19.83
2019-05-26T09:25:37.503Z,19.86
2019-05-26T09:26:37.603Z,19.96
2019-05-26T09:27:37.487Z,20.21
2019-05-26T09:28:37.481Z,20.13
2019-05-26T09:29:37.459Z,20.17
2019-05-26T09:30:37.474Z,20.23
2019-05-26T09:31:37.440Z,20.28
2019-05-26T09:32:37.447Z,20.39
2019-05-26T09:33:37.426Z,20.21
2019-05-26T09:34:37.399Z,20.28
2019-05-26T09:35:37.390Z,20.35
2019-05-26T09:36:37.377Z,20.38
2019-05-26T09:37:37.397Z,20.41
2019-05-26T09:38:37.364Z,20.58
2019-05-26T09:39:37.361Z,20.69
2019-05-26T09:40:37.335Z,20.66
2019-05-26T09:41:37.331Z,20.54
2019-05-26T09:42:37.342Z,20.58
2019-05-26T09:43:37.302Z,20.39
2019-05-26T09:44:37.301Z,20.28
2019-05-26T09:45:37.283Z,20.21
2019-05-26T09:46:37.266Z,20.29
2019-05-26T09:47:37.289Z,20.29
2019-05-26T09:48:37.247Z,20.21
2019-05-26T09:49:37.239Z,20.20
2019-05-26T09:50:37.226Z,20.16
2019-05-26T09:51:37.237Z,20.10
2019-05-26T09:52:37.224Z,20.05
2019-05-26T09:53:37.192Z,20.03
2019-05-26T09:54:37.180Z,20.05
2019-05-26T09:55:37.170Z,20.08
2019-05-26T09:56:37.169Z,20.10
2019-05-26T09:57:37.174Z,20.17
2019-05-26T09:58:37.137Z,20.36
2019-05-26T09:59:37.146Z,20.17
2019-05-26T10:00:37.113Z,20.26
2019-05-26T10:01:37.110Z,20.28
2019-05-26T10:02:37.131Z,20.35
2019-05-26T10:03:37.081Z,20.39
2019-05-26T10:04:37.074Z,20.35
2019-05-26T10:05:37.066Z,20.38
2019-05-26T10:06:37.066Z,20.43
2019-05-26T10:07:37.068Z,20.54
2019-05-26T10:08:37.034Z,20.67
2019-05-26T10:09:37.021Z,20.89
2019-05-26T10:10:37.044Z,20.98
2019-05-26T10:11:36.989Z,21.07
2019-05-26T10:12:37.005Z,21.28
2019-05-26T10:13:36.972Z,21.40
2019-05-26T10:14:37.007Z,21.65
2019-05-26T10:15:36.952Z,21.91
2019-05-26T10:16:36.966Z,22.22
2019-05-26T10:17:36.957Z,22.39
2019-05-26T10:18:36.913Z,22.64
2019-05-26T10:19:36.949Z,22.72
2019-05-26T10:20:36.908Z,22.73
2019-05-26T10:21:36.880Z,22.73
2019-05-26T10:22:36.888Z,22.88
2019-05-26T10:23:36.866Z,23.16
2019-05-26T10:24:36.843Z,23.25
2019-05-26T10:25:36.842Z,22.86
2019-05-26T10:26:36.827Z,22.82
2019-05-26T10:27:36.898Z,22.97
2019-05-26T10:28:36.803Z,23.19
2019-05-26T10:29:36.799Z,23.19
2019-05-26T10:30:36.785Z,23.32
2019-05-26T10:31:36.776Z,23.15
2019-05-26T10:32:36.795Z,22.85
2019-05-26T10:33:36.753Z,22.79
2019-05-26T10:34:36.751Z,22.49
2019-05-26T10:35:36.738Z,22.47
2019-05-26T10:36:36.742Z,22.24
2019-05-26T10:37:36.710Z,22.17
2019-05-26T10:38:36.734Z,22.09
2019-05-26T10:39:36.688Z,22.03
2019-05-26T10:40:36.675Z,22.37
2019-05-26T10:41:36.685Z,22.43
2019-05-26T10:42:36.651Z,22.46
2019-05-26T10:43:47.023Z,22.95
2019-05-26T10:44:37.634Z,23.46
2019-05-26T10:45:36.624Z,23.32
2019-05-26T10:46:36.620Z,22.60
2019-05-26T10:47:36.599Z,22.39
2019-05-26T10:48:36.621Z,22.27
2019-05-26T10:49:36.584Z,22.17
2019-05-26T10:50:36.572Z,21.94
2019-05-26T10:51:36.563Z,21.92
2019-05-26T10:52:36.545Z,22.03
2019-05-26T10:53:36.562Z,21.84
2019-05-26T10:54:36.527Z,22.06
2019-05-26T10:55:36.517Z,22.20
2019-05-26T10:56:36.530Z,22.37
2019-05-26T10:57:36.490Z,22.97
2019-05-26T10:58:36.493Z,23.50
2019-05-26T10:59:36.511Z,23.55
2019-05-26T11:00:36.461Z,23.63
2019-05-26T11:01:36.458Z,23.97
2019-05-26T11:02:36.437Z,24.24
2019-05-26T11:03:36.433Z,24.68
2019-05-26T11:04:36.449Z,25.02
2019-05-26T11:05:36.405Z,25.17
2019-05-26T11:06:36.401Z,25.35
2019-05-26T11:07:36.382Z,25.33
2019-05-26T11:08:36.372Z,24.77
2019-05-26T11:09:36.382Z,24.61
2019-05-26T11:10:36.348Z,24.18
2019-05-26T11:11:36.356Z,23.79
2019-05-26T11:12:36.339Z,24.00
2019-05-26T11:13:36.336Z,23.68
2019-05-26T11:14:36.314Z,23.46
2019-05-26T11:15:36.315Z,23.23
2019-05-26T11:16:36.295Z,23.20
2019-05-26T11:17:36.272Z,23.55
2019-05-26T11:18:36.270Z,23.38
2019-05-26T11:19:36.255Z,23.25
2019-05-26T11:20:36.293Z,23.39
2019-05-26T11:21:36.253Z,23.51
2019-05-26T11:22:36.227Z,23.39
2019-05-26T11:23:36.209Z,23.07
2019-05-26T11:24:36.211Z,22.92
2019-05-26T11:25:36.213Z,22.76
2019-05-26T11:26:36.179Z,22.72
2019-05-26T11:27:36.181Z,22.49
2019-05-26T11:28:36.169Z,22.60
2019-05-26T11:29:36.147Z,22.67
2019-05-26T11:30:36.208Z,22.97
2019-05-26T11:31:36.123Z,23.31
2019-05-26T11:32:36.117Z,23.35
2019-05-26T11:33:36.107Z,23.47
2019-05-26T11:34:36.111Z,24.08
2019-05-26T11:35:36.086Z,24.21
2019-05-26T11:36:36.094Z,24.16
2019-05-26T11:37:36.060Z,23.94
2019-05-26T11:38:36.051Z,23.54
2019-05-26T11:39:36.061Z,23.01
2019-05-26T11:40:36.036Z,22.47
2019-05-26T11:41:36.033Z,22.25
2019-05-26T11:42:36.017Z,21.88
2019-05-26T11:43:35.993Z,21.84
2019-05-26T11:44:35.983Z,21.72
2019-05-26T11:45:35.972Z,21.65
2019-05-26T11:46:35.987Z,21.64
2019-05-26T11:47:35.950Z,21.96
2019-05-26T11:48:38.983Z,22.22
2019-05-26T11:49:35.931Z,22.45
2019-05-26T11:50:35.916Z,22.85
2019-05-26T11:51:37.204Z,23.15
2019-05-26T11:52:35.898Z,23.36
2019-05-26T11:53:35.893Z,23.65
2019-05-26T11:54:35.883Z,23.73
2019-05-26T11:55:35.863Z,23.78
2019-05-26T11:56:35.874Z,23.68
2019-05-26T11:57:37.109Z,23.63
2019-05-26T11:58:35.830Z,23.47
2019-05-26T11:59:35.838Z,23.54
2019-05-26T12:00:35.807Z,23.70
2019-05-26T12:01:35.833Z,23.91
2019-05-26T12:02:35.784Z,24.08
2019-05-26T12:03:35.784Z,23.80
2019-05-26T12:04:35.771Z,23.69
2019-05-26T12:05:35.764Z,23.53
2019-05-26T12:06:35.778Z,23.55
2019-05-26T12:07:35.839Z,23.38
2019-05-26T12:08:35.740Z,23.19
2019-05-26T12:09:35.758Z,23.17
2019-05-26T12:10:35.703Z,22.76
2019-05-26T12:11:35.710Z,22.52
2019-05-26T12:12:35.773Z,22.61
2019-05-26T12:13:36.728Z,22.52
2019-05-26T12:14:35.815Z,22.60
2019-05-26T12:15:35.642Z,22.64
2019-05-26T12:16:35.684Z,22.72
2019-05-26T12:17:35.644Z,22.67
2019-05-26T12:18:35.618Z,22.77
2019-05-26T12:19:35.606Z,22.79
2019-05-26T12:20:35.593Z,22.94
2019-05-26T12:21:35.583Z,23.23
2019-05-26T12:22:35.593Z,23.47
2019-05-26T12:23:35.576Z,23.66
2019-05-26T12:24:35.554Z,23.53
2019-05-26T12:25:35.564Z,23.54
2019-05-26T12:26:35.528Z,23.54
2019-05-26T12:27:35.536Z,23.40
2019-05-26T12:28:35.514Z,23.47
2019-05-26T12:29:35.500Z,23.57
2019-05-26T12:30:35.480Z,23.54
2019-05-26T12:31:35.480Z,23.58
2019-05-26T12:32:35.484Z,23.58
2019-05-26T12:33:35.450Z,23.78
2019-05-26T12:34:35.458Z,23.79
2019-05-26T12:35:35.429Z,23.65
2019-05-26T12:36:39.048Z,23.58
2019-05-26T12:37:35.426Z,23.54
2019-05-26T12:38:35.404Z,23.40
2019-05-26T12:39:35.388Z,23.39
2019-05-26T12:40:35.381Z,23.32
2019-05-26T12:41:37.308Z,23.28
2019-05-26T12:42:35.352Z,23.22
2019-05-26T12:43:35.363Z,23.20
2019-05-26T12:44:48.610Z,23.33
2019-05-26T12:45:36.336Z,23.42
2019-05-26T12:46:35.322Z,23.48
2019-05-26T12:47:35.300Z,23.48
2019-05-26T12:48:35.307Z,23.36
2019-05-26T12:49:35.286Z,23.20
2019-05-26T12:50:35.262Z,23.04
2019-05-26T12:51:35.268Z,22.79
2019-05-26T12:52:35.248Z,22.79